Time;durP1;ratioP1;P1;durP2;ratioP2;P2;SDS_P1;SDS_P2;PMS_P1;PMS_P2;Temp;Humidity;BMP_temperature;BMP_pressure;BME280_temperature;BME280_humidity;BME280_pressure;Samples;Min_cycle;Max_cycle;Signal;HPM_P1;HPM_P2
2023/05/30 00:01:21;;;;;;;;;;;12.00;99.90;;;;;;4967038;28;20066;-69
2023/05/30 00:03:48;;;;;;;7.88;2.20;;;12.00;99.90;;;;;;4970566;28;20428;-69
2023/05/30 00:06:14;;;;;;;8.27;1.77;;;12.00;99.90;;;;;;4947266;28;20396;-71
2023/05/30 00:08:46;;;;;;;9.77;2.15;;;12.00;99.90;;;;;;4971877;28;20085;-70
2023/05/30 00:11:18;;;;;;;4.97;2.00;;;12.00;99.90;;;;;;4966955;28;20520;-70
2023/05/30 00:13:44;;;;;;;5.00;1.77;;;12.00;99.90;;;;;;4962258;28;20076;-70
2023/05/30 00:16:11;;;;;;;12.32;2.22;;;12.00;99.90;;;;;;4965524;28;20405;-70
2023/05/30 00:18:38;;;;;;;5.30;2.15;;;12.10;99.90;;;;;;4962695;28;20047;-70
2023/05/30 00:21:08;;;;;;;8.50;2.17;;;12.00;99.90;;;;;;4967372;28;20050;-70
2023/05/30 00:23:37;;;;;;;6.10;1.75;;;12.00;99.90;;;;;;4969078;28;20531;-70
2023/05/30 00:26:03;;;;;;;10.77;1.95;;;12.00;99.90;;;;;;4967485;28;20038;-70
2023/05/30 00:28:29;;;;;;;6.75;2.03;;;11.90;99.90;;;;;;4959476;28;20467;-70
2023/05/30 00:30:57;;;;;;;7.45;2.15;;;11.90;99.90;;;;;;4970233;28;20526;-70
2023/05/30 00:33:23;;;;;;;8.07;1.83;;;11.90;99.90;;;;;;4964471;28;20141;-69
2023/05/30 00:35:48;;;;;;;14.40;2.63;;;11.80;99.90;;;;;;4947460;28;20704;-70
2023/05/30 00:38:15;;;;;;;5.72;1.98;;;11.90;99.90;;;;;;4965028;28;20101;-70
2023/05/30 00:40:40;;;;;;;5.75;2.03;;;11.80;99.90;;;;;;4966860;28;20093;-70
2023/05/30 00:43:06;;;;;;;7.60;1.77;;;11.90;99.90;;;;;;4958623;28;20078;-70
2023/05/30 00:45:32;;;;;;;6.57;1.85;;;11.80;99.90;;;;;;4955688;28;20048;-70
2023/05/30 00:47:58;;;;;;;7.97;2.33;;;11.80;99.90;;;;;;4963816;28;20483;-70
2023/05/30 00:50:26;;;;;;;6.25;2.10;;;11.80;99.90;;;;;;4964808;28;20130;-70
2023/05/30 00:52:53;;;;;;;5.93;2.20;;;11.80;99.90;;;;;;4962390;28;20485;-70
2023/05/30 00:56:00;;;;;;;10.07;3.15;;;11.80;99.90;;;;;;5011590;22;20074;-85
2023/05/30 00:58:49;;;;;;;6.27;2.57;;;11.80;99.90;;;;;;4984316;28;20414;-85
2023/05/30 01:01:15;;;;;;;10.23;2.28;;;11.80;99.90;;;;;;4958065;22;20043;-66
2023/05/30 01:03:42;;;;;;;7.90;2.42;;;11.80;99.90;;;;;;4962445;28;20464;-67
2023/05/30 01:06:09;;;;;;;5.88;2.17;;;11.90;99.90;;;;;;4962433;28;20150;-66
2023/05/30 01:08:34;;;;;;;8.43;2.17;;;11.80;99.90;;;;;;4962250;28;20059;-66
2023/05/30 01:11:17;;;;;;;6.80;2.00;;;11.80;99.90;;;;;;4967800;28;20066;-66
2023/05/30 01:14:35;;;;;;;9.57;2.17;;;11.80;99.90;;;;;;4959556;28;20411;-66
2023/05/30 01:17:24;;;;;;;7.78;2.08;;;11.90;99.90;;;;;;4967121;28;20424;-66
2023/05/30 01:20:07;;;;;;;9.95;2.13;;;11.80;99.90;;;;;;4960343;28;20190;-66
2023/05/30 01:23:06;;;;;;;4.50;1.73;;;11.80;99.90;;;;;;4952835;28;20049;-66
2023/05/30 01:25:47;;;;;;;8.70;2.15;;;11.80;99.90;;;;;;4962437;28;20131;-66
2023/05/30 01:28:15;;;;;;;4.07;1.52;;;11.80;99.90;;;;;;4964792;28;20043;-68
2023/05/30 01:30:44;;;;;;;5.30;1.92;;;11.80;99.90;;;;;;4959275;28;20074;-68
2023/05/30 01:33:13;;;;;;;5.30;2.33;;;11.80;99.90;;;;;;4963134;28;20039;-68
2023/05/30 01:35:40;;;;;;;6.55;1.75;;;11.80;99.90;;;;;;4964602;28;20147;-68
2023/05/30 01:38:08;;;;;;;5.15;1.75;;;11.80;99.90;;;;;;4966399;28;20216;-68
2023/05/30 01:40:35;;;;;;;6.35;1.80;;;11.80;99.90;;;;;;4964107;28;20266;-69
2023/05/30 01:43:15;;;;;;;9.90;2.40;;;11.80;99.90;;;;;;4961490;28;20239;-68
2023/05/30 01:45:50;;;;;;;4.90;1.70;;;11.80;99.90;;;;;;4955693;28;20043;-68
2023/05/30 01:48:25;;;;;;;6.30;1.95;;;11.80;99.90;;;;;;4960504;28;20472;-68
2023/05/30 01:50:58;;;;;;;10.60;2.70;;;11.80;99.90;;;;;;4964196;28;20047;-68
2023/05/30 01:53:33;;;;;;;4.88;1.65;;;11.80;99.90;;;;;;4959677;28;20117;-68
2023/05/30 01:56:00;;;;;;;4.25;1.83;;;11.90;99.90;;;;;;4962886;28;20129;-69
2023/05/30 01:58:28;;;;;;;6.78;2.00;;;11.80;99.90;;;;;;4962884;28;20420;-68
2023/05/30 02:00:55;;;;;;;7.22;1.70;;;11.80;99.90;;;;;;4962293;28;20497;-68
2023/05/30 02:03:25;;;;;;;10.63;2.30;;;11.80;99.90;;;;;;4961674;28;20042;-68
2023/05/30 02:05:50;;;;;;;4.20;1.50;;;11.80;99.90;;;;;;4960016;28;20113;-68
2023/05/30 02:08:16;;;;;;;7.53;1.63;;;11.80;99.90;;;;;;4966869;28;20149;-68
2023/05/30 02:10:41;;;;;;;6.93;2.10;;;11.80;99.90;;;;;;4964872;28;20157;-68
2023/05/30 02:13:07;;;;;;;6.73;2.00;;;11.80;99.90;;;;;;4964043;28;20284;-68
2023/05/30 02:15:33;;;;;;;7.60;1.73;;;11.80;99.90;;;;;;4961819;28;20034;-68
2023/05/30 02:17:59;;;;;;;8.03;2.07;;;11.80;99.90;;;;;;4962297;28;20170;-69
2023/05/30 02:20:25;;;;;;;8.13;2.20;;;11.80;99.90;;;;;;4961893;28;20297;-68
2023/05/30 02:22:51;;;;;;;8.90;1.95;;;11.90;99.90;;;;;;4959984;28;20069;-68
2023/05/30 02:25:19;;;;;;;7.55;1.65;;;11.80;99.90;;;;;;4963298;28;20113;-68
2023/05/30 02:27:47;;;;;;;6.57;1.60;;;11.90;99.90;;;;;;4961463;28;20201;-69
2023/05/30 02:30:13;;;;;;;7.22;2.20;;;11.90;99.90;;;;;;4968322;28;20069;-69
2023/05/30 02:32:39;;;;;;;9.93;3.42;;;11.80;99.90;;;;;;4966787;28;20049;-68
2023/05/30 02:35:05;;;;;;;9.23;2.33;;;11.90;99.90;;;;;;4966297;28;20054;-68
2023/05/30 02:37:31;;;;;;;4.35;1.70;;;11.90;99.90;;;;;;4970276;28;20704;-68
2023/05/30 02:39:56;;;;;;;9.50;2.58;;;11.90;99.90;;;;;;4972236;28;20051;-68
2023/05/30 02:42:23;;;;;;;9.00;2.00;;;11.80;99.90;;;;;;4964054;28;20042;-68
2023/05/30 02:44:48;;;;;;;14.70;2.25;;;11.90;99.90;;;;;;4973512;28;20378;-68
2023/05/30 02:47:14;;;;;;;6.93;1.93;;;11.90;99.90;;;;;;4968013;28;20085;-69
2023/05/30 02:49:39;;;;;;;10.87;2.43;;;11.90;99.90;;;;;;4968498;28;20101;-68
2023/05/30 02:52:06;;;;;;;11.47;2.07;;;11.90;99.90;;;;;;4971081;28;20066;-68
2023/05/30 02:54:31;;;;;;;7.82;1.70;;;11.90;99.90;;;;;;4971691;28;20074;-68
2023/05/30 02:56:57;;;;;;;13.37;2.10;;;11.90;99.90;;;;;;4972351;28;20081;-68
2023/05/30 02:59:23;;;;;;;5.10;2.75;;;11.90;99.90;;;;;;4968738;28;20046;-68
2023/05/30 03:01:51;;;;;;;7.10;2.20;;;11.90;99.90;;;;;;4967577;28;20548;-68
2023/05/30 03:04:17;;;;;;;10.52;2.33;;;11.90;99.90;;;;;;4967985;28;20070;-69
2023/05/30 03:06:49;;;;;;;9.88;2.30;;;11.90;99.90;;;;;;4965772;28;20070;-68
2023/05/30 03:09:15;;;;;;;12.40;2.85;;;11.90;99.90;;;;;;4973655;28;20541;-69
2023/05/30 03:11:41;;;;;;;11.40;2.10;;;11.90;99.90;;;;;;4971680;28;20039;-68
2023/05/30 03:14:06;;;;;;;11.70;2.00;;;11.90;99.90;;;;;;4976381;28;20054;-68
2023/05/30 03:16:32;;;;;;;7.13;2.93;;;11.90;99.90;;;;;;4972235;28;20046;-68
2023/05/30 03:18:58;;;;;;;13.90;2.40;;;11.90;99.90;;;;;;4969386;28;20113;-68
2023/05/30 03:21:23;;;;;;;5.13;2.50;;;12.00;99.90;;;;;;4974247;28;20081;-69
2023/05/30 03:23:49;;;;;;;14.07;3.00;;;11.90;99.90;;;;;;4970321;28;21593;-68
2023/05/30 03:26:15;;;;;;;5.05;1.95;;;12.00;99.90;;;;;;4973626;28;20463;-68
2023/05/30 03:28:41;;;;;;;10.30;2.63;;;12.00;99.90;;;;;;4969289;28;20489;-68
2023/05/30 03:31:06;;;;;;;6.83;2.10;;;12.00;99.90;;;;;;4968260;28;20150;-69
2023/05/30 03:33:32;;;;;;;11.10;1.93;;;12.00;99.90;;;;;;4967107;28;20043;-69
2023/05/30 03:35:58;;;;;;;8.80;2.37;;;12.00;99.90;;;;;;4974928;28;20042;-68
2023/05/30 03:38:23;;;;;;;6.10;2.15;;;12.00;99.90;;;;;;4973622;28;20046;-68
2023/05/30 03:40:49;;;;;;;13.73;2.23;;;12.00;99.90;;;;;;4963635;28;20039;-68
2023/05/30 03:43:15;;;;;;;9.77;2.93;;;12.00;99.90;;;;;;4966955;28;20689;-68
2023/05/30 03:45:40;;;;;;;8.13;2.40;;;12.00;99.90;;;;;;4963760;28;20165;-69
2023/05/30 03:48:06;;;;;;;16.80;2.23;;;12.00;99.90;;;;;;4963684;28;20331;-68
2023/05/30 03:50:31;;;;;;;10.37;2.40;;;12.00;99.90;;;;;;4949600;28;20047;-68
2023/05/30 03:52:57;;;;;;;6.93;2.00;;;12.00;99.90;;;;;;4967684;28;20043;-69
2023/05/30 03:55:22;;;;;;;10.77;2.20;;;12.10;99.90;;;;;;4969443;28;20039;-68
2023/05/30 03:57:48;;;;;;;8.37;2.30;;;12.00;99.90;;;;;;4967305;28;20053;-68
2023/05/30 04:00:14;;;;;;;14.17;2.27;;;12.00;99.90;;;;;;4969463;28;20122;-69
2023/05/30 04:02:39;;;;;;;10.40;2.50;;;12.00;99.90;;;;;;4964186;28;20042;-68
2023/05/30 04:05:06;;;;;;;7.43;2.27;;;12.00;99.90;;;;;;4965768;28;20488;-68
2023/05/30 04:07:35;;;;;;;;;;;12.00;99.90;;;;;;4969271;28;20042;-68
2023/05/30 04:10:04;;;;;;;9.98;2.92;;;12.10;99.90;;;;;;4966628;28;19929;-68
2023/05/30 04:12:30;;;;;;;5.03;2.35;;;12.10;99.90;;;;;;4964231;28;20046;-68
2023/05/30 04:14:55;;;;;;;5.63;2.00;;;12.00;99.90;;;;;;4965535;28;20039;-68
2023/05/30 04:17:21;;;;;;;6.80;2.33;;;12.10;99.90;;;;;;4965812;28;20389;-68
2023/05/30 04:19:47;;;;;;;10.02;2.78;;;12.10;99.90;;;;;;4964617;28;20575;-68
2023/05/30 04:22:18;;;;;;;5.55;1.75;;;12.10;99.90;;;;;;4960334;28;20050;-68
2023/05/30 04:24:45;;;;;;;11.55;2.83;;;12.10;99.90;;;;;;4965773;28;20420;-68
2023/05/30 04:27:13;;;;;;;8.63;2.53;;;12.10;99.90;;;;;;4967467;28;20067;-69
2023/05/30 04:29:40;;;;;;;6.75;2.05;;;12.10;99.90;;;;;;4964508;28;20063;-68
2023/05/30 04:32:06;;;;;;;9.40;2.20;;;12.10;99.90;;;;;;4957585;28;20498;-68
2023/05/30 04:34:32;;;;;;;;;;;12.10;99.90;;;;;;4966015;28;20039;-68
2023/05/30 04:36:58;;;;;;;8.23;2.40;;;12.10;99.90;;;;;;4962974;28;20161;-68
2023/05/30 04:39:23;;;;;;;11.30;2.92;;;12.10;99.90;;;;;;4964398;28;20045;-68
2023/05/30 04:41:51;;;;;;;5.50;1.87;;;12.20;99.90;;;;;;4961764;28;20050;-68
2023/05/30 04:44:18;;;;;;;6.82;2.53;;;12.20;99.90;;;;;;4964694;28;20053;-69
2023/05/30 04:46:46;;;;;;;9.40;2.53;;;12.20;99.90;;;;;;4960678;28;20424;-69
2023/05/30 04:49:15;;;;;;;10.13;2.78;;;12.20;99.90;;;;;;4965925;28;20070;-69
2023/05/30 04:51:41;;;;;;;10.48;2.15;;;12.20;99.90;;;;;;4956866;28;20451;-70
2023/05/30 04:54:07;;;;;;;7.78;2.05;;;12.20;99.90;;;;;;4961623;28;20039;-70
2023/05/30 04:56:33;;;;;;;8.60;1.90;;;12.30;99.90;;;;;;4959237;28;20174;-69
2023/05/30 04:58:58;;;;;;;8.00;2.47;;;12.30;99.90;;;;;;4966736;28;20445;-70
2023/05/30 05:01:25;;;;;;;9.63;2.10;;;12.30;99.90;;;;;;4963088;28;20124;-70
2023/05/30 05:03:51;;;;;;;4.80;1.63;;;12.30;99.90;;;;;;4962746;28;20050;-69
2023/05/30 05:06:16;;;;;;;9.85;2.70;;;12.30;99.90;;;;;;4961215;28;20121;-69
2023/05/30 05:08:45;;;;;;;4.15;1.98;;;12.30;99.90;;;;;;4957719;28;20784;-69
2023/05/30 05:11:10;;;;;;;7.65;2.25;;;12.30;99.90;;;;;;4958236;28;20042;-74
2023/05/30 05:13:36;;;;;;;5.83;2.40;;;12.40;99.90;;;;;;4958865;28;20053;-73
2023/05/30 05:16:04;;;;;;;10.07;2.42;;;12.30;99.90;;;;;;4960491;28;20369;-71
2023/05/30 05:18:29;;;;;;;4.07;1.77;;;12.30;99.90;;;;;;4966210;28;20069;-74
2023/05/30 05:20:55;;;;;;;7.55;1.95;;;12.30;99.90;;;;;;4961206;28;20046;-71
2023/05/30 05:23:22;;;;;;;7.30;2.00;;;12.30;99.90;;;;;;4965679;28;20050;-70
2023/05/30 05:25:47;;;;;;;6.75;1.85;;;12.30;99.90;;;;;;4963807;28;20388;-71
2023/05/30 05:28:14;;;;;;;8.85;1.90;;;12.30;99.90;;;;;;4962235;28;20122;-70
2023/05/30 05:30:40;;;;;;;7.50;2.28;;;12.30;99.90;;;;;;4953958;28;20051;-70
2023/05/30 05:33:06;;;;;;;7.38;1.77;;;12.30;99.90;;;;;;4959473;28;20105;-71
2023/05/30 05:35:33;;;;;;;8.57;1.97;;;12.30;99.90;;;;;;4948822;28;20051;-70
2023/05/30 05:37:59;;;;;;;8.10;1.77;;;12.30;99.90;;;;;;4965806;28;20043;-70
2023/05/30 05:40:25;;;;;;;4.35;2.00;;;12.30;99.90;;;;;;4961310;28;20042;-72
2023/05/30 05:42:51;;;;;;;10.00;2.10;;;12.30;99.90;;;;;;4965158;28;20311;-70
2023/05/30 05:45:17;;;;;;;3.30;1.40;;;12.40;99.90;;;;;;4961005;28;20415;-71
2023/05/30 05:47:42;;;;;;;5.77;1.63;;;12.30;99.90;;;;;;4959297;28;21301;-71
2023/05/30 05:50:08;;;;;;;5.50;1.40;;;12.40;99.90;;;;;;4963514;28;20375;-70
2023/05/30 05:52:34;;;;;;;4.70;1.60;;;12.40;99.90;;;;;;4961690;28;20394;-71
2023/05/30 05:54:59;;;;;;;6.97;1.48;;;12.40;99.90;;;;;;4964814;28;20147;-72
2023/05/30 05:57:25;;;;;;;4.87;1.63;;;12.40;99.90;;;;;;4967476;28;20042;-71
2023/05/30 05:59:54;;;;;;;6.57;1.85;;;12.40;99.90;;;;;;4965813;28;20085;-69
2023/05/30 06:02:19;;;;;;;5.85;1.45;;;12.40;99.90;;;;;;4968732;28;20046;-69
2023/05/30 06:04:47;;;;;;;8.45;1.70;;;12.40;99.90;;;;;;4966673;28;20519;-76
2023/05/30 06:07:13;;;;;;;4.70;1.60;;;12.40;99.90;;;;;;4963245;28;20057;-69
2023/05/30 06:09:38;;;;;;;;;;;12.50;99.90;;;;;;4966952;28;20416;-76
2023/05/30 06:12:05;;;;;;;3.10;1.40;;;12.50;99.90;;;;;;4960945;28;20001;-70
2023/05/30 06:14:31;;;;;;;11.82;2.15;;;12.40;99.90;;;;;;4962731;28;20218;-73
2023/05/30 06:16:57;;;;;;;10.40;1.67;;;12.40;99.90;;;;;;4964225;28;20254;-70
2023/05/30 06:19:22;;;;;;;4.47;1.80;;;12.40;99.90;;;;;;4969880;28;20484;-68
2023/05/30 06:21:48;;;;;;;6.13;2.20;;;12.50;99.90;;;;;;4965758;28;20050;-68
2023/05/30 06:24:13;;;;;;;6.07;1.70;;;12.50;99.90;;;;;;4961398;28;20153;-68
2023/05/30 06:26:39;;;;;;;4.83;1.70;;;12.50;99.90;;;;;;4963653;28;20100;-68
2023/05/30 06:29:05;;;;;;;3.63;1.40;;;12.50;99.90;;;;;;4959180;28;20092;-68
2023/05/30 06:31:31;;;;;;;6.15;1.50;;;12.50;99.90;;;;;;4953795;28;20544;-68
2023/05/30 06:33:56;;;;;;;5.37;2.03;;;12.60;99.90;;;;;;4962977;28;20039;-69
2023/05/30 06:36:22;;;;;;;3.70;1.10;;;12.60;99.90;;;;;;4961786;28;20118;-68
2023/05/30 06:38:47;;;;;;;6.43;1.27;;;12.60;99.90;;;;;;4963547;28;20043;-68
2023/05/30 06:41:13;;;;;;;3.40;1.17;;;12.60;99.90;;;;;;4962550;28;20058;-68
2023/05/30 06:43:39;;;;;;;5.87;1.70;;;12.60;99.90;;;;;;4961582;28;20328;-68
2023/05/30 06:46:05;;;;;;;3.17;1.13;;;12.60;99.90;;;;;;4962331;28;20315;-70
2023/05/30 06:48:31;;;;;;;8.05;1.63;;;12.50;99.90;;;;;;4959217;28;20046;-69
2023/05/30 06:51:00;;;;;;;7.35;1.30;;;12.50;99.90;;;;;;4969791;28;20047;-68
2023/05/30 06:56:09;;;;;;;5.03;1.42;;;12.60;99.90;;;;;;4964044;22;20054;-85
2023/05/30 06:59:06;;;;;;;2.25;1.08;;;12.70;99.90;;;;;;5000689;28;20042;-81
2023/05/30 07:01:49;;;;;;;7.13;1.20;;;12.60;99.90;;;;;;4996087;28;20662;-81
2023/05/30 07:04:18;;;;;;;4.32;1.17;;;12.70;99.90;;;;;;5004402;28;20060;-80
2023/05/30 07:06:43;;;;;;;2.50;1.00;;;12.70;99.90;;;;;;4998189;28;20180;-83
2023/05/30 07:09:09;;;;;;;5.97;1.23;;;12.70;99.90;;;;;;4998548;28;20128;-82
2023/05/30 07:11:35;;;;;;;5.63;1.10;;;12.60;99.90;;;;;;4992898;28;20049;-82
2023/05/30 07:14:01;;;;;;;4.28;0.85;;;12.70;99.90;;;;;;5002429;28;20873;-81
2023/05/30 07:16:27;;;;;;;3.77;1.13;;;12.70;99.90;;;;;;5012588;28;20122;-83
2023/05/30 07:18:52;;;;;;;3.20;1.00;;;12.70;99.90;;;;;;5004587;28;20038;-82
2023/05/30 07:21:18;;;;;;;2.90;1.30;;;12.70;99.90;;;;;;5000933;28;20042;-82
2023/05/30 07:23:44;;;;;;;5.03;0.90;;;12.70;99.90;;;;;;5002924;28;20053;-81
2023/05/30 07:26:09;;;;;;;6.57;1.10;;;12.70;99.90;;;;;;5020265;28;20519;-81
2023/05/30 07:28:35;;;;;;;3.83;1.20;;;12.70;99.90;;;;;;5002474;28;20089;-83
2023/05/30 07:31:00;;;;;;;3.23;1.40;;;12.70;99.90;;;;;;5001230;28;20045;-82
2023/05/30 07:33:26;;;;;;;8.50;1.30;;;12.80;99.90;;;;;;4984510;28;20823;-82
2023/05/30 07:35:51;;;;;;;4.00;1.30;;;12.80;99.90;;;;;;5006126;28;20076;-82
2023/05/30 07:38:17;;;;;;;3.13;1.47;;;12.80;99.90;;;;;;5002897;28;20120;-83
2023/05/30 07:40:43;;;;;;;4.93;1.67;;;12.70;99.90;;;;;;5023405;28;20100;-83
2023/05/30 07:43:08;;;;;;;4.53;1.03;;;12.70;99.90;;;;;;5001917;28;20501;-82
2023/05/30 07:45:34;;;;;;;2.30;1.10;;;12.80;99.90;;;;;;5002908;28;20112;-83
2023/05/30 07:47:59;;;;;;;3.83;1.20;;;12.70;99.90;;;;;;5016656;28;20129;-84
2023/05/30 07:50:25;;;;;;;3.30;0.93;;;12.80;99.90;;;;;;5012159;28;20038;-84
2023/05/30 07:52:50;;;;;;;3.10;1.17;;;12.70;99.90;;;;;;5007941;28;20287;-82
2023/05/30 07:55:16;;;;;;;2.37;1.03;;;12.80;99.90;;;;;;4995644;28;20129;-83
2023/05/30 07:57:42;;;;;;;3.83;1.43;;;12.80;99.90;;;;;;4950938;28;20367;-84
2023/05/30 08:00:08;;;;;;;5.35;1.42;;;12.80;99.90;;;;;;4910924;28;20322;-84
2023/05/30 08:02:35;;;;;;;3.22;1.00;;;12.80;99.90;;;;;;4980264;28;20050;-84
2023/05/30 08:05:00;;;;;;;6.22;1.20;;;12.90;99.90;;;;;;5000952;28;20041;-89
2023/05/30 08:07:26;;;;;;;6.40;1.25;;;12.90;99.90;;;;;;4997100;28;20065;-84
2023/05/30 08:09:52;;;;;;;4.07;0.97;;;12.90;99.90;;;;;;4990259;28;20099;-83
2023/05/30 08:12:20;;;;;;;2.47;0.93;;;12.90;99.90;;;;;;5008647;28;20038;-84
2023/05/30 08:14:47;;;;;;;4.20;0.85;;;13.10;99.90;;;;;;4990475;28;20088;-84
2023/05/30 08:17:13;;;;;;;;;;;13.10;99.90;;;;;;4994780;28;20046;-89
2023/05/30 08:19:40;;;;;;;8.52;1.08;;;13.20;99.90;;;;;;4979355;28;20348;-83
2023/05/30 08:22:06;;;;;;;3.75;0.95;;;13.20;99.90;;;;;;4990536;28;20319;-83
2023/05/30 08:24:32;;;;;;;2.55;0.85;;;13.20;99.90;;;;;;4982515;22;20118;-73
2023/05/30 08:27:01;;;;;;;3.13;0.93;;;13.30;99.90;;;;;;4960224;28;20306;-73
2023/05/30 08:29:27;;;;;;;3.45;1.10;;;13.40;99.90;;;;;;4962738;28;20453;-73
2023/05/30 08:31:53;;;;;;;;;;;13.50;99.90;;;;;;4970098;28;20081;-72
2023/05/30 08:34:18;;;;;;;5.45;0.75;;;13.40;99.90;;;;;;4956866;28;20343;-73
2023/05/30 08:36:44;;;;;;;1.53;0.90;;;13.50;99.90;;;;;;4956850;28;20516;-73
2023/05/30 08:39:12;;;;;;;4.43;0.90;;;13.50;99.90;;;;;;4959974;28;20030;-73
2023/05/30 08:41:38;;;;;;;2.15;0.85;;;13.50;99.90;;;;;;4952532;28;20039;-73
2023/05/30 08:44:03;;;;;;;3.58;0.70;;;13.50;99.90;;;;;;4955963;28;20124;-72
2023/05/30 08:46:29;;;;;;;2.00;0.90;;;13.50;99.90;;;;;;4952890;28;20070;-72
2023/05/30 08:48:55;;;;;;;1.60;0.65;;;13.50;99.90;;;;;;4954633;28;20112;-73
2023/05/30 08:51:26;;;;;;;1.77;0.77;;;13.50;99.90;;;;;;4957560;28;20043;-73
2023/05/30 08:53:59;;;;;;;2.00;0.98;;;13.60;99.90;;;;;;4954210;28;20082;-73
2023/05/30 08:56:37;;;;;;;2.17;0.65;;;13.70;99.90;;;;;;4957596;28;20305;-73
2023/05/30 08:59:08;;;;;;;1.63;0.75;;;13.70;99.90;;;;;;4954230;28;20181;-72
2023/05/30 09:01:34;;;;;;;1.75;0.82;;;13.80;99.90;;;;;;4969288;28;20049;-73
2023/05/30 09:04:00;;;;;;;1.00;0.50;;;13.80;99.90;;;;;;4958651;28;20101;-73
2023/05/30 09:06:26;;;;;;;1.33;0.70;;;13.90;99.90;;;;;;4953223;28;20316;-73
2023/05/30 09:08:54;;;;;;;1.33;0.63;;;14.00;99.90;;;;;;4957058;28;20140;-72
2023/05/30 09:11:21;;;;;;;1.15;0.50;;;14.10;99.90;;;;;;4974188;28;20571;-73
2023/05/30 09:13:48;;;;;;;1.10;0.40;;;14.20;99.90;;;;;;4954719;28;20082;-73
2023/05/30 09:16:14;;;;;;;0.47;0.22;;;14.30;99.90;;;;;;4959516;28;20513;-72
2023/05/30 09:18:40;;;;;;;0.80;0.30;;;14.30;99.90;;;;;;4970155;28;20125;-73
2023/05/30 09:21:07;;;;;;;0.93;0.30;;;14.30;99.90;;;;;;4966122;28;20046;-73
2023/05/30 09:23:34;;;;;;;1.08;0.47;;;14.30;99.90;;;;;;4962910;28;20505;-73
2023/05/30 09:26:04;;;;;;;0.60;0.43;;;14.30;99.90;;;;;;4948755;28;20057;-73
2023/05/30 09:28:32;;;;;;;1.23;0.47;;;14.40;99.90;;;;;;4963541;28;20031;-73
2023/05/30 09:31:03;;;;;;;0.68;0.32;;;14.40;99.90;;;;;;4967169;28;20121;-73
2023/05/30 09:33:41;;;;;;;1.00;0.30;;;14.40;99.90;;;;;;4959878;28;20393;-73
2023/05/30 09:36:07;;;;;;;0.95;0.30;;;14.50;99.90;;;;;;4956063;28;20511;-72
2023/05/30 09:38:33;;;;;;;1.50;0.40;;;14.50;99.90;;;;;;4956929;28;20336;-73
2023/05/30 09:41:05;;;;;;;0.95;0.50;;;14.50;99.90;;;;;;4958446;28;20105;-73
2023/05/30 09:43:34;;;;;;;0.73;0.30;;;14.50;99.90;;;;;;4955411;28;20401;-73
2023/05/30 09:46:01;;;;;;;2.55;0.50;;;14.40;99.90;;;;;;4950142;28;20039;-72
2023/05/30 09:48:27;;;;;;;0.57;0.35;;;14.40;99.90;;;;;;4947116;28;20034;-73
2023/05/30 09:50:53;;;;;;;3.63;0.50;;;14.40;99.90;;;;;;4951169;28;20316;-73
2023/05/30 09:53:18;;;;;;;1.35;0.30;;;14.30;99.90;;;;;;4954565;28;20047;-72
2023/05/30 09:55:44;;;;;;;0.70;0.50;;;14.30;99.90;;;;;;4957203;28;20547;-72
2023/05/30 09:58:21;;;;;;;1.90;0.60;;;14.30;99.90;;;;;;4960011;28;20042;-72
2023/05/30 10:00:56;;;;;;;1.05;0.40;;;14.30;99.90;;;;;;4953382;28;20050;-73
2023/05/30 10:03:41;;;;;;;2.53;0.40;;;14.20;99.90;;;;;;4955483;28;20082;-72
2023/05/30 10:06:14;;;;;;;0.88;0.40;;;14.20;99.90;;;;;;4950397;28;20503;-72
2023/05/30 10:08:43;;;;;;;1.95;0.73;;;14.20;99.90;;;;;;4951363;28;20363;-72
2023/05/30 10:11:10;;;;;;;1.08;0.50;;;14.20;99.90;;;;;;4975328;28;20057;-73
2023/05/30 10:13:37;;;;;;;1.42;0.60;;;14.20;99.90;;;;;;4953886;28;20409;-73
2023/05/30 10:16:04;;;;;;;1.92;0.70;;;14.20;99.90;;;;;;4944152;28;20045;-73
2023/05/30 10:18:33;;;;;;;1.55;0.90;;;14.20;99.90;;;;;;4968284;28;20382;-72
2023/05/30 10:21:00;;;;;;;0.88;0.52;;;14.20;99.90;;;;;;4955066;28;20585;-72
2023/05/30 10:23:26;;;;;;;1.67;0.68;;;14.20;99.90;;;;;;4957631;28;20512;-73
2023/05/30 10:25:57;;;;;;;1.05;0.50;;;14.10;99.90;;;;;;4952372;28;20111;-73
2023/05/30 10:28:28;;;;;;;1.95;0.60;;;14.10;99.90;;;;;;4954684;28;20368;-72
2023/05/30 10:30:55;;;;;;;2.55;0.70;;;14.00;99.90;;;;;;4955872;28;20065;-73
2023/05/30 10:33:25;;;;;;;3.25;0.82;;;14.00;99.90;;;;;;4974875;28;20309;-73
2023/05/30 10:35:51;;;;;;;1.25;0.50;;;14.00;99.90;;;;;;4958370;28;20137;-73
2023/05/30 10:38:18;;;;;;;2.28;0.82;;;13.90;99.90;;;;;;4963535;28;20129;-72
2023/05/30 10:41:02;;;;;;;1.50;0.68;;;13.90;99.90;;;;;;4977556;28;20046;-73
2023/05/30 10:43:52;;;;;;;1.60;0.73;;;14.00;99.90;;;;;;4946349;28;20038;-72
2023/05/30 10:46:35;;;;;;;1.42;0.47;;;14.00;99.90;;;;;;4960124;28;20369;-73
2023/05/30 10:49:05;;;;;;;2.63;0.60;;;14.10;99.90;;;;;;4957618;28;20133;-73
2023/05/30 10:51:51;;;;;;;0.85;0.45;;;14.10;99.90;;;;;;4959187;28;20150;-72
2023/05/30 10:54:17;;;;;;;1.25;0.60;;;14.20;99.90;;;;;;4962675;28;20052;-72
2023/05/30 10:56:43;;;;;;;0.80;0.55;;;14.20;99.90;;;;;;4960170;28;20046;-72
2023/05/30 10:59:18;;;;;;;1.25;0.52;;;14.30;99.90;;;;;;4965616;28;20078;-72
2023/05/30 11:02:20;;;;;;;1.77;0.50;;;14.30;99.90;;;;;;4957468;28;20527;-72
2023/05/30 11:04:50;;;;;;;1.20;0.40;;;14.30;99.90;;;;;;4933447;28;20508;-72
2023/05/30 11:07:16;;;;;;;1.25;0.60;;;14.30;99.90;;;;;;4965646;28;20049;-73
2023/05/30 11:10:03;;;;;;;3.72;0.63;;;14.30;99.90;;;;;;4965489;28;20051;-73
2023/05/30 11:12:29;;;;;;;2.63;0.80;;;14.30;99.90;;;;;;4954787;28;20051;-72
2023/05/30 11:14:56;;;;;;;2.47;0.60;;;14.30;99.90;;;;;;4962766;28;20121;-73
2023/05/30 11:17:34;;;;;;;1.27;0.50;;;14.30;99.90;;;;;;4960088;28;20046;-73
2023/05/30 11:20:06;;;;;;;1.50;0.50;;;14.30;99.90;;;;;;4961726;28;20512;-73
2023/05/30 11:22:32;;;;;;;3.25;0.80;;;14.30;99.90;;;;;;4960802;28;20039;-72
2023/05/30 11:25:26;;;;;;;1.17;0.70;;;14.40;99.90;;;;;;4959306;28;20122;-73
2023/05/30 11:28:04;;;;;;;0.98;0.70;;;14.40;99.90;;;;;;4964063;28;20047;-72
2023/05/30 11:30:30;;;;;;;1.65;0.93;;;14.50;99.90;;;;;;4955266;28;20066;-73
2023/05/30 11:32:58;;;;;;;1.75;0.68;;;14.50;99.90;;;;;;4966453;28;20098;-73
2023/05/30 11:35:26;;;;;;;4.03;0.88;;;14.60;99.90;;;;;;4960446;28;20678;-72
2023/05/30 11:37:53;;;;;;;2.10;0.60;;;14.60;99.90;;;;;;4963863;28;20054;-72
2023/05/30 11:40:23;;;;;;;1.70;0.30;;;14.70;99.90;;;;;;4964900;28;20055;-72
2023/05/30 11:42:55;;;;;;;1.88;0.70;;;14.70;99.90;;;;;;4961262;28;20130;-73
2023/05/30 11:45:26;;;;;;;0.80;0.40;;;14.70;99.90;;;;;;4958578;28;20129;-72
2023/05/30 11:47:52;;;;;;;1.50;0.50;;;14.70;99.90;;;;;;4958728;28;20039;-73
2023/05/30 11:50:21;;;;;;;2.00;0.47;;;14.70;99.90;;;;;;4954184;28;20089;-72
2023/05/30 11:52:47;;;;;;;3.60;0.57;;;14.60;99.90;;;;;;4939801;28;20049;-72
2023/05/30 11:55:12;;;;;;;1.30;0.60;;;14.70;99.90;;;;;;4955114;28;20039;-72
2023/05/30 11:57:38;;;;;;;6.15;0.70;;;14.70;99.90;;;;;;4951634;28;20548;-72
2023/05/30 12:00:12;;;;;;;1.42;0.57;;;14.70;99.90;;;;;;4962783;28;21008;-72
2023/05/30 12:02:38;;;;;;;1.20;0.40;;;14.80;99.90;;;;;;4953505;28;20509;-72
2023/05/30 12:05:04;;;;;;;2.10;0.88;;;14.90;99.90;;;;;;4955833;28;20043;-72
2023/05/30 12:07:32;;;;;;;0.90;0.45;;;14.90;99.90;;;;;;4954995;28;20042;-72
2023/05/30 12:09:58;;;;;;;0.88;0.52;;;15.00;99.90;;;;;;4956577;28;20250;-73
2023/05/30 12:12:24;;;;;;;1.45;0.70;;;15.20;99.90;;;;;;4953710;28;20050;-72
2023/05/30 12:14:55;;;;;;;2.20;0.70;;;15.40;99.90;;;;;;4977658;28;20042;-73
2023/05/30 12:17:21;;;;;;;2.22;0.90;;;15.50;99.90;;;;;;4954123;28;20422;-73
2023/05/30 12:19:55;;;;;;;0.73;0.32;;;15.70;99.90;;;;;;4958369;28;20104;-73
2023/05/30 12:22:23;;;;;;;2.75;0.65;;;15.80;99.90;;;;;;4960352;28;20062;-73
2023/05/30 12:24:49;;;;;;;3.72;1.25;;;15.80;99.90;;;;;;4957306;28;20070;-73
2023/05/30 12:27:16;;;;;;;;;;;15.80;99.90;;;;;;4972396;28;20047;-72
2023/05/30 12:29:42;;;;;;;2.55;0.50;;;15.80;99.90;;;;;;4956590;28;20335;-73
2023/05/30 12:32:08;;;;;;;1.23;0.55;;;15.80;99.90;;;;;;4959990;28;20047;-73
2023/05/30 12:34:54;;;;;;;1.17;0.50;;;15.80;99.90;;;;;;4956554;28;20089;-72
2023/05/30 12:37:20;;;;;;;1.73;1.00;;;15.80;99.90;;;;;;4971658;28;20050;-73
2023/05/30 12:39:50;;;;;;;3.22;0.70;;;15.80;99.90;;;;;;4956270;28;20519;-72
2023/05/30 12:42:27;;;;;;;1.58;0.60;;;15.80;99.90;;;;;;4941519;28;20055;-73
2023/05/30 12:45:00;;;;;;;1.75;0.70;;;15.80;99.90;;;;;;4963163;28;20104;-73
2023/05/30 12:47:27;;;;;;;1.65;0.82;;;15.90;99.90;;;;;;4959286;28;20043;-72
2023/05/30 12:49:55;;;;;;;1.55;0.80;;;16.00;99.90;;;;;;4943326;28;20050;-72
2023/05/30 12:52:24;;;;;;;2.20;0.70;;;16.10;99.90;;;;;;4967929;28;20347;-73
2023/05/30 12:54:51;;;;;;;1.00;0.52;;;16.10;99.90;;;;;;4985050;22;20447;-69
2023/05/30 12:57:19;;;;;;;1.75;0.70;;;16.10;99.90;;;;;;4985588;28;20111;-70